createdAt,value
2019-02-27T00:02:13.824Z,22.17
2019-02-27T00:04:42.958Z,21.57
2019-02-27T00:07:20.834Z,21.50
2019-02-27T00:09:48.274Z,21.07
2019-02-27T00:12:19.404Z,20.43
2019-02-27T00:14:50.476Z,20.47
2019-02-27T00:17:20.834Z,25.10
2019-02-27T00:19:49.954Z,23.90
2019-02-27T00:22:19.095Z,24.17
2019-02-27T00:24:48.095Z,23.83
2019-02-27T00:27:19.014Z,24.37
2019-02-27T00:29:48.148Z,24.00
2019-02-27T00:32:18.652Z,23.17
2019-02-27T00:34:48.289Z,24.07
2019-02-27T00:37:18.939Z,24.93
2019-02-27T00:39:48.697Z,20.67
2019-02-27T00:42:20.689Z,21.73
2019-02-27T00:44:48.740Z,21.17
2019-02-27T00:47:20.121Z,19.50
2019-02-27T00:49:49.084Z,19.83
2019-02-27T00:52:18.805Z,19.70
2019-02-27T00:54:48.153Z,19.93
2019-02-27T00:57:20.495Z,25.53
2019-02-27T00:59:48.303Z,25.87
2019-02-27T01:02:19.906Z,25.10
2019-02-27T01:04:48.367Z,25.70
2019-02-27T01:07:20.588Z,26.23
2019-02-27T01:09:48.535Z,25.73
2019-02-27T01:12:22.891Z,25.43
2019-02-27T01:14:54.005Z,25.80
2019-02-27T01:17:23.863Z,25.97
2019-02-27T01:19:54.716Z,23.20
2019-02-27T01:22:25.602Z,21.57
2019-02-27T01:24:56.982Z,22.10
2019-02-27T01:27:29.366Z,25.73
2019-02-27T01:30:00.788Z,24.90
2019-02-27T01:32:32.229Z,25.00
2019-02-27T01:35:04.392Z,24.30
2019-02-27T01:37:34.387Z,24.87
2019-02-27T01:40:03.819Z,23.97
2019-02-27T01:42:34.656Z,24.13
2019-02-27T01:45:05.709Z,23.80
2019-02-27T01:47:36.578Z,22.20
2019-02-27T01:50:45.992Z,20.77
2019-02-27T01:53:18.077Z,20.60
2019-02-27T01:55:47.215Z,21.67
2019-02-27T01:58:16.485Z,21.93
2019-02-27T02:00:45.945Z,21.37
2019-02-27T02:03:15.139Z,26.10
2019-02-27T02:05:44.380Z,25.77
2019-02-27T02:08:13.843Z,25.73
2019-02-27T02:10:43.824Z,24.17
2019-02-27T02:13:22.511Z,24.70
2019-02-27T02:16:15.802Z,25.30
2019-02-27T02:19:31.432Z,24.30
2019-02-27T02:22:41.318Z,24.47
2019-02-27T02:25:49.844Z,20.50
2019-02-27T02:28:53.642Z,21.60
2019-02-27T02:31:59.709Z,21.30
2019-02-27T02:35:16.586Z,22.70
2019-02-27T02:38:26.922Z,21.17
2019-02-27T02:41:22.443Z,25.20
2019-02-27T02:44:34.174Z,24.27
2019-02-27T02:47:32.414Z,25.33
2019-02-27T02:50:38.760Z,23.87
2019-02-27T02:53:38.720Z,22.87
2019-02-27T02:56:37.326Z,24.00
2019-02-27T02:59:47.864Z,23.60
2019-02-27T03:02:43.214Z,21.20
2019-02-27T03:05:58.524Z,19.97
2019-02-27T03:08:34.732Z,19.90
2019-02-27T03:11:28.965Z,21.30
2019-02-27T03:14:23.657Z,21.83
2019-02-27T03:17:24.574Z,21.77
2019-02-27T03:20:29.562Z,24.23
2019-02-27T03:23:24.918Z,24.27
2019-02-27T03:26:09.974Z,24.67
2019-02-27T03:29:15.565Z,23.57
2019-02-27T03:32:05.402Z,23.70
2019-02-27T03:35:10.335Z,23.80
2019-02-27T03:37:57.042Z,23.30
2019-02-27T03:40:52.693Z,20.50
2019-02-27T03:44:20.274Z,20.03
2019-02-27T03:47:15.617Z,19.60
2019-02-27T03:50:14.916Z,19.97
2019-02-27T03:53:20.579Z,24.30
2019-02-27T03:56:36.760Z,23.57
2019-02-27T03:59:43.793Z,24.97
2019-02-27T04:02:51.438Z,23.17
2019-02-27T04:06:21.324Z,23.10
2019-02-27T04:08:58.288Z,23.43
2019-02-27T04:11:27.895Z,23.13
2019-02-27T04:14:03.088Z,22.77
2019-02-27T04:16:30.550Z,21.97
2019-02-27T04:19:04.436Z,22.47
2019-02-27T04:21:34.755Z,23.57
2019-02-27T04:24:04.155Z,22.73
2019-02-27T04:26:34.372Z,22.17
2019-02-27T04:29:04.464Z,23.53
2019-02-27T04:31:34.924Z,22.17
2019-02-27T04:34:04.075Z,23.17
2019-02-27T04:36:33.301Z,22.87
2019-02-27T04:39:03.135Z,24.03
2019-02-27T04:41:32.372Z,22.67
2019-02-27T04:44:05.354Z,23.27
2019-02-27T04:46:32.494Z,22.37
2019-02-27T04:49:04.334Z,21.90
2019-02-27T04:51:32.456Z,22.93
2019-02-27T04:54:06.417Z,23.70
2019-02-27T04:56:32.498Z,23.07
2019-02-27T04:59:01.690Z,23.97
2019-02-27T05:01:30.848Z,23.27
2019-02-27T05:04:01.452Z,23.20
2019-02-27T05:06:30.819Z,23.00
2019-02-27T05:09:00.738Z,23.53
2019-02-27T05:11:30.022Z,22.80
2019-02-27T05:13:59.235Z,22.83
2019-02-27T05:16:28.415Z,23.67
2019-02-27T05:18:57.550Z,23.17
2019-02-27T05:21:26.767Z,23.47
2019-02-27T05:23:56.188Z,22.80
2019-02-27T05:26:27.346Z,23.40
2019-02-27T05:28:56.243Z,19.63
2019-02-27T05:31:25.359Z,18.77
2019-02-27T05:33:54.569Z,18.50
2019-02-27T05:36:23.794Z,18.20
2019-02-27T05:38:52.899Z,20.07
2019-02-27T05:41:22.012Z,22.57
2019-02-27T05:43:51.157Z,23.63
2019-02-27T05:46:20.190Z,23.17
2019-02-27T05:48:50.924Z,23.63
2019-02-27T05:51:20.201Z,22.63
2019-02-27T05:53:49.355Z,23.73
2019-02-27T05:56:18.470Z,23.80
2019-02-27T05:58:47.643Z,23.63
2019-02-27T06:01:16.848Z,22.83
2019-02-27T06:03:45.864Z,24.13
2019-02-27T06:06:15.045Z,22.87
2019-02-27T06:08:45.492Z,22.77
2019-02-27T06:11:14.616Z,23.57
2019-02-27T06:13:45.013Z,22.93
2019-02-27T06:16:14.991Z,23.90
2019-02-27T06:18:44.481Z,23.57
2019-02-27T06:21:16.422Z,24.53
2019-02-27T06:23:44.587Z,24.20
2019-02-27T06:26:14.502Z,23.93
2019-02-27T06:28:44.703Z,20.27
2019-02-27T06:31:13.847Z,18.93
2019-02-27T06:33:45.188Z,18.83
2019-02-27T06:36:13.853Z,19.27
2019-02-27T06:38:42.999Z,19.53
2019-02-27T06:41:15.416Z,19.20
2019-02-27T06:43:43.065Z,19.20
2019-02-27T06:46:12.205Z,25.47
2019-02-27T06:48:43.572Z,25.93
2019-02-27T06:51:14.361Z,25.90
2019-02-27T06:53:45.329Z,25.23
2019-02-27T06:56:14.471Z,25.83
2019-02-27T06:58:43.662Z,25.70
2019-02-27T07:01:13.245Z,24.87
2019-02-27T07:03:42.759Z,26.80
2019-02-27T07:06:13.150Z,25.40
2019-02-27T07:08:42.278Z,26.40
2019-02-27T07:11:11.668Z,25.73
2019-02-27T07:13:43.917Z,26.80
2019-02-27T07:16:20.467Z,24.80
2019-02-27T07:18:51.660Z,26.43
2019-02-27T07:21:21.774Z,24.57
2019-02-27T07:23:57.588Z,25.67
2019-02-27T07:26:23.470Z,26.30
2019-02-27T07:28:52.512Z,26.07
2019-02-27T07:31:23.342Z,25.33
2019-02-27T07:33:52.701Z,19.57
2019-02-27T07:36:21.885Z,21.53
2019-02-27T07:38:54.321Z,21.13
2019-02-27T07:41:23.393Z,22.63
2019-02-27T07:43:52.511Z,21.87
2019-02-27T07:46:22.976Z,22.53
2019-02-27T07:48:56.546Z,29.20
2019-02-27T07:51:23.987Z,26.80
2019-02-27T07:53:53.822Z,24.70
2019-02-27T07:56:23.835Z,22.77
2019-02-27T07:58:53.055Z,21.97
2019-02-27T08:01:23.516Z,18.10
2019-02-27T08:03:53.044Z,21.00
2019-02-27T08:06:25.979Z,19.53
2019-02-27T08:08:57.278Z,18.40
2019-02-27T08:11:26.798Z,19.97
2019-02-27T08:13:55.988Z,19.70
2019-02-27T08:16:25.539Z,18.57
2019-02-27T08:18:54.753Z,16.70
2019-02-27T08:21:24.606Z,16.70
2019-02-27T08:23:55.126Z,16.97
2019-02-27T08:26:24.390Z,17.97
2019-02-27T08:28:53.589Z,18.00
2019-02-27T08:31:27.935Z,16.83
2019-02-27T08:33:54.755Z,15.83
2019-02-27T08:36:24.184Z,16.27
2019-02-27T08:38:53.610Z,16.47
2019-02-27T08:41:22.882Z,16.53
2019-02-27T08:43:52.004Z,16.10
2019-02-27T08:46:21.188Z,15.97
2019-02-27T08:48:50.731Z,15.43
2019-02-27T08:51:19.975Z,15.13
2019-02-27T08:53:49.085Z,15.00
2019-02-27T08:56:19.565Z,16.40
2019-02-27T08:58:51.075Z,16.03
2019-02-27T09:01:21.672Z,15.90
2019-02-27T09:03:52.464Z,15.17
2019-02-27T09:06:21.601Z,13.80
2019-02-27T09:08:52.167Z,14.47
2019-02-27T09:11:21.537Z,14.47
2019-02-27T09:13:50.809Z,13.17
2019-02-27T09:16:23.089Z,14.30
2019-02-27T09:18:51.215Z,12.40
2019-02-27T09:21:20.671Z,12.73
2019-02-27T09:23:50.005Z,12.83
2019-02-27T09:26:19.205Z,13.17
2019-02-27T09:28:48.306Z,12.73
2019-02-27T09:31:17.662Z,13.13
2019-02-27T09:33:53.144Z,12.23
2019-02-27T09:36:19.798Z,12.90
2019-02-27T09:38:52.128Z,12.10
2019-02-27T09:41:23.150Z,12.53
2019-02-27T09:43:52.258Z,12.20
2019-02-27T09:46:21.378Z,12.20
2019-02-27T09:48:50.545Z,12.00
2019-02-27T09:51:22.206Z,12.50
2019-02-27T09:53:50.507Z,12.37
2019-02-27T09:56:20.218Z,12.43
2019-02-27T09:58:49.327Z,11.90
2019-02-27T10:01:20.908Z,12.00
2019-02-27T10:03:52.007Z,12.27
2019-02-27T10:06:22.799Z,12.53
2019-02-27T10:08:51.988Z,12.57
2019-02-27T10:11:22.368Z,12.20
2019-02-27T10:13:51.721Z,12.70
2019-02-27T10:16:20.857Z,12.33
2019-02-27T10:18:54.778Z,13.80
2019-02-27T10:21:20.929Z,13.10
2019-02-27T10:23:50.350Z,12.23
2019-02-27T10:26:22.030Z,11.93
2019-02-27T10:28:50.695Z,12.07
2019-02-27T10:31:19.743Z,12.43
2019-02-27T10:33:49.976Z,12.80
2019-02-27T10:36:19.109Z,12.47
2019-02-27T10:38:48.519Z,12.27
2019-02-27T10:41:17.948Z,12.23
2019-02-27T10:43:48.543Z,12.77
2019-02-27T10:46:17.992Z,13.43
2019-02-27T10:48:49.516Z,14.00
2019-02-27T10:51:18.634Z,14.13
2019-02-27T10:53:47.906Z,12.80
2019-02-27T10:56:16.950Z,12.23
2019-02-27T10:58:47.645Z,13.00
2019-02-27T11:01:17.136Z,13.10
2019-02-27T11:03:46.498Z,13.17
2019-02-27T11:06:16.957Z,12.63
2019-02-27T11:08:46.567Z,13.17
2019-02-27T11:11:19.498Z,13.00
2019-02-27T11:13:52.154Z,14.37
2019-02-27T11:16:21.418Z,13.00
2019-02-27T11:18:50.927Z,13.83
2019-02-27T11:21:20.044Z,13.73
2019-02-27T11:23:49.237Z,14.03
2019-02-27T11:26:18.539Z,13.53
2019-02-27T11:28:49.482Z,13.43
2019-02-27T11:31:19.126Z,13.27
2019-02-27T11:33:48.389Z,14.37
2019-02-27T11:36:21.787Z,13.63
2019-02-27T11:38:51.190Z,15.00
2019-02-27T11:41:42.454Z,14.40
2019-02-27T11:44:14.040Z,13.57
2019-02-27T11:46:42.819Z,14.90
2019-02-27T11:49:19.538Z,15.03
2019-02-27T11:51:53.224Z,14.37
2019-02-27T11:54:21.951Z,14.67
2019-02-27T11:56:55.533Z,13.77
2019-02-27T11:59:21.942Z,14.73
2019-02-27T12:01:55.417Z,14.50
2019-02-27T12:04:24.230Z,14.30
2019-02-27T12:06:55.257Z,14.83
2019-02-27T12:09:24.396Z,14.53
2019-02-27T12:11:53.822Z,14.13
2019-02-27T12:14:23.584Z,14.57
2019-02-27T12:16:53.574Z,14.43
2019-02-27T12:19:25.052Z,15.00
2019-02-27T12:21:59.538Z,14.63
2019-02-27T12:24:29.059Z,15.30
2019-02-27T12:27:00.282Z,14.40
2019-02-27T12:29:29.413Z,14.40
2019-02-27T12:31:59.154Z,15.07
2019-02-27T12:34:31.223Z,15.03
2019-02-27T12:37:00.700Z,15.23
2019-02-27T12:39:29.775Z,14.87
2019-02-27T12:41:58.995Z,14.40
2019-02-27T12:44:28.157Z,15.30
2019-02-27T12:46:57.281Z,15.03
2019-02-27T12:49:26.497Z,15.27
2019-02-27T12:51:55.690Z,16.13
2019-02-27T12:54:26.815Z,15.50
2019-02-27T12:56:56.032Z,16.50
2019-02-27T12:59:25.121Z,15.80
2019-02-27T13:01:55.711Z,15.53
2019-02-27T13:04:25.753Z,15.93
2019-02-27T13:06:57.267Z,16.13
2019-02-27T13:09:27.514Z,15.90
2019-02-27T13:11:56.676Z,16.70
2019-02-27T13:14:27.747Z,16.53
2019-02-27T13:16:56.954Z,16.23
2019-02-27T13:19:26.354Z,16.00
2019-02-27T13:21:55.857Z,15.87
2019-02-27T13:24:25.504Z,15.93
2019-02-27T13:26:54.676Z,15.73
2019-02-27T13:29:23.848Z,16.23
2019-02-27T13:31:53.300Z,16.27
2019-02-27T13:34:22.544Z,16.40
2019-02-27T13:36:51.662Z,17.27
2019-02-27T13:39:25.403Z,16.10
2019-02-27T13:41:51.911Z,16.00
2019-02-27T13:44:21.344Z,16.57
2019-02-27T13:46:50.457Z,16.37
2019-02-27T13:49:19.707Z,17.17
2019-02-27T13:51:48.874Z,16.87
2019-02-27T13:54:17.993Z,17.00
2019-02-27T13:56:47.194Z,17.73
2019-02-27T13:59:16.386Z,18.07
2019-02-27T14:01:45.513Z,18.53
2019-02-27T14:04:14.687Z,19.07
2019-02-27T14:06:47.304Z,18.57
2019-02-27T14:09:14.652Z,19.27
2019-02-27T14:11:43.816Z,19.53
2019-02-27T14:14:15.041Z,19.57
2019-02-27T14:16:43.945Z,20.13
2019-02-27T14:19:13.136Z,19.83
2019-02-27T14:21:42.284Z,20.00
2019-02-27T14:24:11.612Z,20.27
2019-02-27T14:26:41.405Z,19.83
2019-02-27T14:29:11.304Z,20.00
2019-02-27T14:31:43.423Z,20.13
2019-02-27T14:34:11.371Z,19.63
2019-02-27T14:36:42.517Z,20.40
2019-02-27T14:39:13.094Z,19.27
2019-02-27T14:41:42.254Z,20.90
2019-02-27T14:44:11.404Z,20.70
2019-02-27T14:46:41.950Z,20.93
2019-02-27T14:49:13.883Z,21.53
2019-02-27T14:51:43.253Z,21.80
2019-02-27T14:54:12.408Z,23.03
2019-02-27T14:56:41.892Z,23.97
2019-02-27T14:59:11.978Z,23.50
2019-02-27T15:01:41.072Z,23.90
2019-02-27T15:04:10.276Z,24.03
2019-02-27T15:06:39.390Z,24.40
2019-02-27T15:09:08.536Z,24.03
2019-02-27T15:11:38.182Z,24.73
2019-02-27T15:14:07.684Z,25.30
2019-02-27T15:16:36.830Z,24.93
2019-02-27T15:19:06.096Z,24.43
2019-02-27T15:21:36.921Z,25.77
2019-02-27T15:24:06.070Z,25.67
2019-02-27T15:26:35.195Z,25.93
2019-02-27T15:29:05.695Z,25.53
2019-02-27T15:31:35.293Z,25.13
2019-02-27T15:34:04.549Z,24.87
2019-02-27T15:36:33.736Z,25.00
2019-02-27T15:39:04.691Z,24.87
2019-02-27T15:41:35.425Z,26.20
2019-02-27T15:44:06.557Z,25.17
2019-02-27T15:46:36.780Z,24.23
2019-02-27T15:49:06.007Z,24.93
2019-02-27T15:51:35.148Z,25.37
2019-02-27T15:54:04.326Z,24.43
2019-02-27T15:56:33.451Z,24.70
2019-02-27T15:59:07.373Z,25.80
2019-02-27T16:01:34.297Z,26.13
2019-02-27T16:04:05.256Z,24.73
2019-02-27T16:06:37.051Z,25.00
2019-02-27T16:09:06.855Z,25.53
2019-02-27T16:11:35.989Z,25.73
2019-02-27T16:14:09.281Z,25.20
2019-02-27T16:16:38.198Z,25.37
2019-02-27T16:19:10.831Z,25.40
2019-02-27T16:21:41.002Z,24.93
2019-02-27T16:24:11.291Z,24.70
2019-02-27T16:26:40.430Z,25.83
2019-02-27T16:29:09.601Z,25.60
2019-02-27T16:31:39.882Z,24.70
2019-02-27T16:34:09.643Z,25.83
2019-02-27T16:36:40.485Z,26.70
2019-02-27T16:39:09.913Z,26.90
2019-02-27T16:41:39.170Z,26.83
2019-02-27T16:44:08.361Z,26.43
2019-02-27T16:46:43.239Z,26.87
2019-02-27T16:49:10.122Z,26.93
2019-02-27T16:51:40.851Z,27.07
2019-02-27T16:54:10.947Z,27.00
2019-02-27T16:56:40.036Z,26.77
2019-02-27T16:59:11.955Z,26.10
2019-02-27T17:01:40.415Z,26.73
2019-02-27T17:04:11.296Z,26.77
2019-02-27T17:06:42.320Z,25.87
2019-02-27T17:09:13.239Z,26.70
2019-02-27T17:11:42.747Z,26.63
2019-02-27T17:14:11.908Z,27.90
2019-02-27T17:16:44.299Z,25.80
2019-02-27T17:19:11.956Z,25.93
2019-02-27T17:21:41.213Z,26.60
2019-02-27T17:24:10.421Z,25.43
2019-02-27T17:26:39.878Z,26.57
2019-02-27T17:29:09.122Z,30.10
2019-02-27T17:31:38.359Z,31.47
2019-02-27T17:34:08.328Z,29.23
2019-02-27T17:36:39.826Z,26.60
2019-02-27T17:39:09.989Z,31.13
2019-02-27T17:41:41.840Z,33.73
2019-02-27T17:44:10.330Z,33.07
2019-02-27T17:46:39.478Z,32.43
2019-02-27T17:49:08.616Z,31.30
2019-02-27T17:51:39.538Z,29.87
2019-02-27T17:54:09.944Z,31.37
2019-02-27T17:56:38.996Z,31.23
2019-02-27T17:59:08.558Z,27.40
2019-02-27T18:01:39.017Z,26.03
2019-02-27T18:04:08.157Z,26.80
2019-02-27T18:06:37.461Z,27.70
2019-02-27T18:09:08.586Z,25.63
2019-02-27T18:11:38.173Z,25.73
2019-02-27T18:14:09.888Z,28.37
2019-02-27T18:16:38.412Z,33.10
2019-02-27T18:19:07.652Z,32.17
2019-02-27T18:21:37.981Z,31.60
2019-02-27T18:24:07.114Z,32.30
2019-02-27T18:26:59.227Z,32.80
2019-02-27T18:29:41.170Z,32.67
2019-02-27T18:32:09.815Z,28.87
2019-02-27T18:34:38.928Z,27.27
2019-02-27T18:37:08.073Z,27.40
2019-02-27T18:39:37.349Z,27.20
2019-02-27T18:42:06.521Z,31.10
2019-02-27T18:44:38.329Z,33.63
2019-02-27T18:47:06.578Z,35.27
2019-02-27T18:49:35.858Z,34.97
2019-02-27T18:52:06.762Z,35.03
2019-02-27T18:54:36.364Z,35.80
2019-02-27T18:57:06.482Z,36.17
2019-02-27T18:59:35.620Z,34.97
2019-02-27T19:02:04.774Z,36.87
2019-02-27T19:04:35.198Z,34.73
2019-02-27T19:07:06.694Z,31.17
2019-02-27T19:09:35.908Z,29.43
2019-02-27T19:12:06.377Z,30.27
2019-02-27T19:14:36.712Z,29.23
2019-02-27T19:17:06.683Z,30.43
2019-02-27T19:19:36.033Z,38.50
2019-02-27T19:22:07.589Z,37.63
2019-02-27T19:24:36.307Z,38.37
2019-02-27T19:27:05.585Z,37.80
2019-02-27T19:29:34.830Z,37.87
2019-02-27T19:32:04.335Z,38.10
2019-02-27T19:34:33.533Z,39.00
2019-02-27T19:37:05.202Z,40.07
2019-02-27T19:39:35.380Z,39.40
2019-02-27T19:42:04.844Z,34.37
2019-02-27T19:44:33.987Z,34.10
2019-02-27T19:47:05.583Z,33.33
2019-02-27T19:49:36.651Z,33.50
2019-02-27T19:52:05.761Z,35.13
2019-02-27T19:54:35.061Z,40.03
2019-02-27T19:57:08.482Z,40.90
2019-02-27T19:59:39.844Z,39.97
2019-02-27T20:02:09.394Z,41.87
2019-02-27T20:04:42.901Z,42.83
2019-02-27T20:07:09.984Z,43.13
2019-02-27T20:09:39.228Z,42.97
2019-02-27T20:12:09.577Z,42.00
2019-02-27T20:14:39.386Z,41.60
2019-02-27T20:17:08.837Z,35.00
2019-02-27T20:19:41.220Z,35.70
2019-02-27T20:22:10.364Z,33.77
2019-02-27T20:24:43.036Z,35.73
2019-02-27T20:27:12.039Z,47.13
2019-02-27T20:29:41.276Z,45.77
2019-02-27T20:32:10.968Z,46.53
2019-02-27T20:34:42.682Z,46.47
2019-02-27T20:37:14.543Z,46.50
2019-02-27T20:39:43.715Z,48.07
2019-02-27T20:42:13.721Z,47.60
2019-02-27T20:44:43.555Z,44.07
2019-02-27T20:47:14.671Z,39.33
2019-02-27T20:49:46.465Z,36.67
2019-02-27T20:52:16.209Z,37.73
2019-02-27T20:54:45.645Z,35.97
2019-02-27T20:57:14.769Z,37.43
2019-02-27T20:59:43.946Z,36.83
2019-02-27T21:02:13.161Z,51.13
2019-02-27T21:04:42.713Z,53.43
2019-02-27T21:07:21.891Z,52.57
2019-02-27T21:09:53.293Z,51.80
2019-02-27T21:12:22.550Z,52.67
2019-02-27T21:14:55.114Z,52.37
2019-02-27T21:17:27.656Z,52.53
2019-02-27T21:19:59.278Z,52.43
2019-02-27T21:22:28.674Z,53.33
2019-02-27T21:24:57.902Z,54.97
2019-02-27T21:27:28.516Z,54.93
2019-02-27T21:29:57.969Z,56.43
2019-02-27T21:32:27.151Z,54.40
2019-02-27T21:34:58.673Z,56.70
2019-02-27T21:37:28.051Z,56.13
2019-02-27T21:40:02.098Z,57.27
2019-02-27T21:42:28.797Z,58.77
2019-02-27T21:45:03.679Z,55.60
2019-02-27T21:47:31.312Z,56.80
2019-02-27T21:50:00.456Z,59.33
2019-02-27T21:52:31.230Z,58.57
2019-02-27T21:55:00.391Z,60.63
2019-02-27T21:57:29.511Z,62.30
2019-02-27T21:59:58.619Z,64.00
2019-02-27T22:02:30.654Z,63.93
2019-02-27T22:05:00.024Z,60.13
2019-02-27T22:07:32.895Z,63.50
2019-02-27T22:10:00.515Z,59.67
2019-02-27T22:12:32.343Z,57.53
2019-02-27T22:15:00.691Z,57.40
2019-02-27T22:17:30.153Z,60.87
2019-02-27T22:19:59.401Z,60.57
2019-02-27T22:22:28.573Z,64.67
2019-02-27T22:24:57.746Z,62.17
2019-02-27T22:27:27.079Z,63.63
2019-02-27T22:29:59.702Z,63.30
2019-02-27T22:32:27.440Z,50.53
2019-02-27T22:34:59.275Z,43.73
2019-02-27T22:37:27.525Z,41.30
2019-02-27T22:39:56.758Z,38.50
2019-02-27T22:42:27.456Z,35.60
2019-02-27T22:45:00.667Z,36.27
2019-02-27T22:47:29.922Z,35.70
2019-02-27T22:50:05.870Z,34.00
2019-02-27T22:52:32.250Z,36.13
2019-02-27T22:55:01.393Z,59.67
2019-02-27T22:57:30.583Z,69.33
2019-02-27T23:00:03.296Z,67.17
2019-02-27T23:02:32.583Z,66.57
2019-02-27T23:05:04.926Z,66.57
2019-02-27T23:07:33.526Z,70.07
2019-02-27T23:10:03.203Z,73.83
2019-02-27T23:12:32.516Z,71.57
2019-02-27T23:15:01.793Z,65.93
2019-02-27T23:17:31.602Z,66.33
2019-02-27T23:20:01.692Z,65.20
2019-02-27T23:22:30.963Z,63.87
2019-02-27T23:25:00.222Z,65.77
2019-02-27T23:27:29.537Z,62.60
2019-02-27T23:29:58.725Z,66.50
2019-02-27T23:32:28.622Z,68.93
2019-02-27T23:34:58.462Z,64.90
2019-02-27T23:37:32.804Z,65.87
2019-02-27T23:40:09.478Z,63.97
2019-02-27T23:43:03.283Z,53.53
2019-02-27T23:45:48.666Z,51.87
2019-02-27T23:48:17.880Z,55.07
2019-02-27T23:50:47.139Z,52.77
2019-02-27T23:53:16.413Z,52.93
2019-02-27T23:55:45.806Z,82.80
2019-02-27T23:58:15.171Z,83.57
